createdAt,value
2018-12-27T00:02:08.528Z,101800.14
2018-12-27T00:04:40.222Z,101797.31
2018-12-27T00:07:11.836Z,101782.25
2018-12-27T00:09:43.442Z,101774.36
2018-12-27T00:12:17.137Z,101785.27
2018-12-27T00:14:54.877Z,101778.29
2018-12-27T00:17:26.553Z,101784.55
2018-12-27T00:19:58.106Z,101784.65
2018-12-27T00:22:29.751Z,101782.69
2018-12-27T00:25:04.847Z,101780.66
2018-12-27T00:27:41.787Z,101781.38
2018-12-27T00:30:13.854Z,101776.09
2018-12-27T00:32:45.921Z,101771.63
2018-12-27T00:35:18.107Z,101773.84
2018-12-27T00:37:50.167Z,101771.47
2018-12-27T00:40:22.236Z,101766.08
2018-12-27T00:42:54.303Z,101766.25
2018-12-27T00:45:26.387Z,101764.22
2018-12-27T00:47:58.449Z,101767.48
2018-12-27T00:50:30.495Z,101769.20
2018-12-27T00:53:02.587Z,101762.17
2018-12-27T00:55:34.682Z,101767.39
2018-12-27T00:58:06.806Z,101768.86
2018-12-27T01:00:38.855Z,101761.77
2018-12-27T01:03:11.549Z,101758.60
2018-12-27T01:05:43.674Z,101765.86
2018-12-27T01:08:15.731Z,101764.89
2018-12-27T01:10:47.805Z,101762.35
2018-12-27T01:13:19.873Z,101757.47
2018-12-27T01:15:51.945Z,101760.55
2018-12-27T01:18:24.020Z,101760.65
2018-12-27T01:20:56.111Z,101754.36
2018-12-27T01:23:28.177Z,101763.89
2018-12-27T01:26:00.250Z,101752.33
2018-12-27T01:28:32.517Z,101755.37
2018-12-27T01:31:04.590Z,101762.36
2018-12-27T01:33:36.759Z,101756.17
2018-12-27T01:36:08.850Z,101757.14
2018-12-27T01:38:40.919Z,101755.67
2018-12-27T01:41:12.993Z,101753.06
2018-12-27T01:43:45.045Z,101762.70
2018-12-27T01:46:17.105Z,101762.03
2018-12-27T01:48:49.189Z,101754.47
2018-12-27T01:51:21.261Z,101750.38
2018-12-27T01:53:53.342Z,101752.76
2018-12-27T01:56:25.782Z,101750.31
2018-12-27T01:58:57.853Z,101749.98
2018-12-27T02:01:30.056Z,101746.13
2018-12-27T02:04:02.114Z,101754.86
2018-12-27T02:06:34.233Z,101755.20
2018-12-27T02:09:06.421Z,101753.22
2018-12-27T02:11:38.501Z,101746.53
2018-12-27T02:14:10.725Z,101741.98
2018-12-27T02:16:42.821Z,101742.77
2018-12-27T02:19:14.910Z,101742.77
2018-12-27T02:21:46.975Z,101737.08
2018-12-27T02:24:19.077Z,101733.00
2018-12-27T02:26:51.138Z,101736.34
2018-12-27T02:29:23.195Z,101731.45
2018-12-27T02:31:55.270Z,101727.36
2018-12-27T02:34:27.338Z,101727.11
2018-12-27T02:36:59.538Z,101722.20
2018-12-27T02:39:31.593Z,101721.80
2018-12-27T02:42:03.654Z,101718.63
2018-12-27T02:44:35.781Z,101717.98
2018-12-27T02:47:07.851Z,101710.80
2018-12-27T02:49:39.922Z,101709.73
2018-12-27T02:52:11.985Z,101704.77
2018-12-27T02:54:44.049Z,101700.02
2018-12-27T02:57:16.123Z,101698.53
2018-12-27T02:59:48.217Z,101695.27
2018-12-27T03:02:20.291Z,101699.43
2018-12-27T03:04:52.371Z,101690.55
2018-12-27T03:07:24.458Z,101688.74
2018-12-27T03:09:57.800Z,101693.31
2018-12-27T03:12:29.828Z,101685.48
2018-12-27T03:15:01.920Z,101676.97
2018-12-27T03:17:34.077Z,101678.12
2018-12-27T03:20:06.288Z,101676.16
2018-12-27T03:22:38.380Z,101672.86
2018-12-27T03:25:10.553Z,101671.16
2018-12-27T03:27:42.653Z,101671.31
2018-12-27T03:30:14.750Z,101665.53
2018-12-27T03:32:46.817Z,101664.22
2018-12-27T03:35:18.883Z,101660.92
2018-12-27T03:37:51.125Z,101664.94
2018-12-27T03:40:23.278Z,101663.69
2018-12-27T03:42:55.381Z,101665.50
2018-12-27T03:45:27.569Z,101668.16
2018-12-27T03:47:59.722Z,101665.09
2018-12-27T03:50:31.770Z,101662.88
2018-12-27T03:53:03.875Z,101666.86
2018-12-27T03:55:35.993Z,101667.41
2018-12-27T03:58:08.375Z,101656.50
2018-12-27T04:00:40.543Z,101656.50
2018-12-27T04:03:12.624Z,101656.36
2018-12-27T04:05:44.739Z,101652.94
2018-12-27T04:08:16.797Z,101654.23
2018-12-27T04:10:48.928Z,101660.62
2018-12-27T04:13:21.005Z,101655.30
2018-12-27T04:15:52.670Z,101660.30
2018-12-27T04:18:24.249Z,101659.34
2018-12-27T04:20:55.812Z,101660.66
2018-12-27T04:23:27.444Z,101655.27
2018-12-27T04:25:59.051Z,101653.47
2018-12-27T04:28:30.663Z,101652.97
2018-12-27T04:31:02.444Z,101651.36
2018-12-27T04:33:34.167Z,101647.13
2018-12-27T04:36:05.722Z,101646.02
2018-12-27T04:38:37.333Z,101643.56
2018-12-27T04:41:08.947Z,101645.36
2018-12-27T04:43:40.539Z,101643.44
2018-12-27T04:46:12.106Z,101646.52
2018-12-27T04:48:43.710Z,101649.62
2018-12-27T04:51:15.265Z,101651.08
2018-12-27T04:53:46.829Z,101642.69
2018-12-27T04:56:18.405Z,101648.94
2018-12-27T04:58:49.994Z,101649.78
2018-12-27T05:01:21.566Z,101647.72
2018-12-27T05:03:53.128Z,101655.71
2018-12-27T05:06:24.713Z,101653.75
2018-12-27T05:08:56.381Z,101650.09
2018-12-27T05:11:28.067Z,101653.16
2018-12-27T05:13:59.699Z,101659.22
2018-12-27T05:16:31.297Z,101649.59
2018-12-27T05:19:02.898Z,101652.76
2018-12-27T05:21:34.507Z,101650.40
2018-12-27T05:24:06.135Z,101651.55
2018-12-27T05:26:37.922Z,101654.25
2018-12-27T05:29:09.550Z,101652.41
2018-12-27T05:31:41.148Z,101650.30
2018-12-27T05:34:12.751Z,101645.80
2018-12-27T05:36:44.321Z,101648.34
2018-12-27T05:39:15.926Z,101647.44
2018-12-27T05:41:47.503Z,101648.91
2018-12-27T05:44:19.057Z,101654.84
2018-12-27T05:46:52.049Z,101654.59
2018-12-27T05:49:23.628Z,101652.38
2018-12-27T05:51:55.204Z,101659.81
2018-12-27T05:54:26.780Z,101662.67
2018-12-27T05:56:58.373Z,101660.92
2018-12-27T05:59:29.947Z,101651.73
2018-12-27T06:02:01.573Z,101654.74
2018-12-27T06:04:33.999Z,101656.70
2018-12-27T06:07:05.870Z,101645.11
2018-12-27T06:09:37.496Z,101648.36
2018-12-27T06:12:09.143Z,101645.05
2018-12-27T06:14:42.204Z,101649.33
2018-12-27T06:17:13.810Z,101650.98
2018-12-27T06:19:45.423Z,101652.69
2018-12-27T06:22:17.036Z,101652.62
2018-12-27T06:24:48.801Z,101662.58
2018-12-27T06:27:20.469Z,101654.95
2018-12-27T06:29:52.047Z,101655.55
2018-12-27T06:32:23.708Z,101655.86
2018-12-27T06:34:55.305Z,101654.95
2018-12-27T06:37:26.967Z,101661.08
2018-12-27T06:39:58.529Z,101660.77
2018-12-27T06:42:30.116Z,101660.48
2018-12-27T06:45:01.724Z,101671.64
2018-12-27T06:47:33.802Z,101664.69
2018-12-27T06:50:05.973Z,101674.28
2018-12-27T06:52:37.640Z,101668.41
2018-12-27T06:55:09.968Z,101670.18
2018-12-27T06:57:42.236Z,101677.20
2018-12-27T07:00:15.064Z,101676.90
2018-12-27T07:02:46.720Z,101663.66
2018-12-27T07:05:19.357Z,101657.31
2018-12-27T07:07:50.938Z,101665.84
2018-12-27T07:10:22.621Z,101674.13
2018-12-27T07:12:54.265Z,101663.23
2018-12-27T07:15:25.884Z,101665.87
2018-12-27T07:17:57.459Z,101665.67
2018-12-27T07:20:29.147Z,101663.67
2018-12-27T07:23:00.737Z,101672.96
2018-12-27T07:25:32.355Z,101663.11
2018-12-27T07:28:04.034Z,101665.52
2018-12-27T07:30:35.771Z,101662.26
2018-12-27T07:33:07.351Z,101665.06
2018-12-27T07:35:38.952Z,101664.56
2018-12-27T07:38:10.597Z,101663.27
2018-12-27T07:40:42.318Z,101667.27
2018-12-27T07:43:13.918Z,101661.15
2018-12-27T07:45:45.591Z,101658.88
2018-12-27T07:48:17.244Z,101659.95
2018-12-27T07:50:48.840Z,101660.50
2018-12-27T07:53:20.437Z,101661.90
2018-12-27T07:55:52.492Z,101667.59
2018-12-27T07:58:24.090Z,101666.58
2018-12-27T08:00:56.119Z,101666.87
2018-12-27T08:03:27.968Z,101666.17
2018-12-27T08:05:59.583Z,101662.66
2018-12-27T08:08:31.226Z,101664.36
2018-12-27T08:11:03.735Z,101655.87
2018-12-27T08:13:35.368Z,101656.85
2018-12-27T08:16:07.013Z,101666.91
2018-12-27T08:18:38.659Z,101659.67
2018-12-27T08:21:10.562Z,101659.42
2018-12-27T08:23:43.990Z,101667.91
2018-12-27T08:26:15.952Z,101666.05
2018-12-27T08:28:47.736Z,101672.13
2018-12-27T08:31:19.315Z,101678.70
2018-12-27T08:33:50.914Z,101674.09
2018-12-27T08:36:22.622Z,101671.33
2018-12-27T08:38:54.226Z,101667.26
2018-12-27T08:41:25.791Z,101668.31
2018-12-27T08:43:57.487Z,101666.39
2018-12-27T08:46:29.109Z,101668.51
2018-12-27T08:49:00.839Z,101670.53
2018-12-27T08:51:32.492Z,101675.25
2018-12-27T08:54:04.060Z,101673.33
2018-12-27T08:56:35.882Z,101677.55
2018-12-27T08:59:07.450Z,101670.03
2018-12-27T09:01:40.769Z,101667.05
2018-12-27T09:04:12.594Z,101665.70
2018-12-27T09:06:44.337Z,101670.87
2018-12-27T09:09:15.949Z,101677.59
2018-12-27T09:11:47.654Z,101672.52
2018-12-27T09:14:19.279Z,101667.55
2018-12-27T09:16:50.873Z,101666.98
2018-12-27T09:19:22.513Z,101673.17
2018-12-27T09:21:54.129Z,101672.36
2018-12-27T09:24:26.189Z,101677.43
2018-12-27T09:26:57.963Z,101668.51
2018-12-27T09:29:29.588Z,101672.70
2018-12-27T09:32:01.221Z,101668.89
2018-12-27T09:34:33.132Z,101674.20
2018-12-27T09:37:04.920Z,101657.73
2018-12-27T09:39:36.636Z,101666.55
2018-12-27T09:42:08.392Z,101664.16
2018-12-27T09:44:40.088Z,101666.21
2018-12-27T09:47:11.755Z,101657.23
2018-12-27T09:49:43.433Z,101661.83
2018-12-27T09:52:15.384Z,101652.73
2018-12-27T09:54:46.994Z,101653.69
2018-12-27T09:57:18.643Z,101650.58
2018-12-27T09:59:50.309Z,101653.59
2018-12-27T10:02:22.018Z,101652.84
2018-12-27T10:04:53.680Z,101648.31
2018-12-27T10:07:26.400Z,101652.08
2018-12-27T10:09:58.004Z,101644.74
2018-12-27T10:12:29.610Z,101642.44
2018-12-27T10:15:01.213Z,101639.37
2018-12-27T10:17:32.953Z,101625.51
2018-12-27T10:20:04.734Z,101630.56
2018-12-27T10:22:36.437Z,101628.61
2018-12-27T10:25:08.313Z,101621.78
2018-12-27T10:27:40.082Z,101617.22
2018-12-27T10:30:11.945Z,101605.06
2018-12-27T10:32:43.673Z,101608.55
2018-12-27T10:35:15.376Z,101605.12
2018-12-27T10:37:47.171Z,101598.20
2018-12-27T10:40:18.817Z,101598.57
2018-12-27T10:42:50.521Z,101597.20
2018-12-27T10:45:22.454Z,101594.41
2018-12-27T10:47:54.098Z,101589.25
2018-12-27T10:50:25.910Z,101590.99
2018-12-27T10:52:57.633Z,101584.06
2018-12-27T10:55:29.242Z,101581.72
2018-12-27T10:58:00.910Z,101583.06
2018-12-27T11:00:32.675Z,101583.02
2018-12-27T11:03:04.430Z,101583.06
2018-12-27T11:05:36.215Z,101572.11
2018-12-27T11:08:07.979Z,101575.92
2018-12-27T11:10:39.657Z,101574.31
2018-12-27T11:13:11.401Z,101573.16
2018-12-27T11:15:43.191Z,101570.44
2018-12-27T11:18:15.900Z,101564.47
2018-12-27T11:20:47.563Z,101560.00
2018-12-27T11:23:19.164Z,101561.77
2018-12-27T11:25:50.948Z,101560.06
2018-12-27T11:28:22.775Z,101563.69
2018-12-27T11:30:54.647Z,101553.97
2018-12-27T11:33:26.275Z,101548.09
2018-12-27T11:35:57.926Z,101546.18
2018-12-27T11:38:29.543Z,101547.19
2018-12-27T11:41:01.464Z,101554.22
2018-12-27T11:43:33.155Z,101546.59
2018-12-27T11:46:04.867Z,101549.09
2018-12-27T11:48:37.318Z,101545.23
2018-12-27T11:51:09.275Z,101545.42
2018-12-27T11:53:41.020Z,101542.62
2018-12-27T11:56:12.631Z,101549.70
2018-12-27T11:58:47.258Z,101548.50
2018-12-27T12:01:20.847Z,101546.38
2018-12-27T12:03:52.479Z,101540.72
2018-12-27T12:06:24.166Z,101533.03
2018-12-27T12:08:55.834Z,101536.53
2018-12-27T12:11:27.637Z,101543.43
2018-12-27T12:14:00.475Z,101544.58
2018-12-27T12:16:32.207Z,101543.67
2018-12-27T12:19:03.972Z,101545.17
2018-12-27T12:22:20.005Z,101543.62
2018-12-27T12:24:51.804Z,101546.73
2018-12-27T12:27:23.405Z,101551.30
2018-12-27T12:29:55.067Z,101543.38
2018-12-27T12:32:26.695Z,101541.67
2018-12-27T12:34:58.387Z,101544.52
2018-12-27T12:37:30.178Z,101539.55
2018-12-27T12:40:02.709Z,101529.86
2018-12-27T12:42:35.802Z,101529.22
2018-12-27T12:45:12.421Z,101535.69
2018-12-27T12:47:44.096Z,101529.22
2018-12-27T12:50:15.801Z,101533.13
2018-12-27T12:52:47.492Z,101532.38
2018-12-27T12:55:19.147Z,101534.53
2018-12-27T12:57:51.589Z,101533.33
2018-12-27T13:00:23.243Z,101533.82
2018-12-27T13:02:54.938Z,101535.44
2018-12-27T13:05:26.793Z,101531.98
2018-12-27T13:07:58.616Z,101527.56
2018-12-27T13:10:30.221Z,101536.44
2018-12-27T13:13:01.993Z,101522.08
2018-12-27T13:15:33.594Z,101536.55
2018-12-27T13:18:05.405Z,101531.22
2018-12-27T13:20:37.366Z,101538.55
2018-12-27T13:23:10.207Z,101534.89
2018-12-27T13:25:41.843Z,101538.55
2018-12-27T13:28:13.512Z,101537.84
2018-12-27T13:30:46.183Z,101540.11
2018-12-27T13:33:17.864Z,101540.16
2018-12-27T13:35:49.486Z,101539.09
2018-12-27T13:38:21.090Z,101541.71
2018-12-27T13:40:52.825Z,101541.16
2018-12-27T13:46:31.251Z,101540.31
2018-12-27T13:49:03.899Z,101537.59
2018-12-27T13:51:35.658Z,101535.99
2018-12-27T13:54:07.240Z,101533.69
2018-12-27T13:56:38.842Z,101537.99
2018-12-27T13:59:10.422Z,101530.56
2018-12-27T14:01:42.080Z,101534.38
2018-12-27T14:04:13.794Z,101535.13
2018-12-27T14:06:45.391Z,101524.95
2018-12-27T14:09:17.021Z,101528.86
2018-12-27T14:11:51.929Z,101526.03
2018-12-27T14:14:23.558Z,101519.67
2018-12-27T14:16:59.672Z,101517.47
2018-12-27T14:19:31.445Z,101513.88
2018-12-27T14:22:03.157Z,101514.89
2018-12-27T14:24:35.018Z,101512.42
2018-12-27T14:27:06.841Z,101512.12
2018-12-27T14:29:38.454Z,101508.26
2018-12-27T14:32:10.088Z,101505.66
2018-12-27T14:34:41.804Z,101500.20
2018-12-27T14:37:16.212Z,101501.56
2018-12-27T14:39:49.423Z,101499.84
2018-12-27T14:42:24.169Z,101503.20
2018-12-27T14:44:55.765Z,101499.23
2018-12-27T14:51:46.816Z,101495.01
2018-12-27T14:54:24.646Z,101507.30
2018-12-27T14:56:56.362Z,101501.72
2018-12-27T14:59:28.239Z,101498.23
2018-12-27T15:01:59.960Z,101501.44
2018-12-27T15:04:38.242Z,101501.25
2018-12-27T15:07:08.041Z,101511.75
2018-12-27T15:09:39.886Z,101510.81
2018-12-27T15:12:12.793Z,101507.84
2018-12-27T15:14:44.427Z,101512.15
2018-12-27T15:17:17.904Z,101506.05
2018-12-27T15:19:51.591Z,101505.56
2018-12-27T15:22:24.878Z,101507.37
2018-12-27T15:25:05.995Z,101506.19
2018-12-27T15:27:37.918Z,101503.30
2018-12-27T15:30:09.573Z,101501.84
2018-12-27T15:32:41.428Z,101499.23
2018-12-27T15:35:14.501Z,101499.95
2018-12-27T15:37:46.312Z,101511.03
2018-12-27T15:40:18.056Z,101511.44
2018-12-27T15:42:50.965Z,101512.37
2018-12-27T15:45:22.826Z,101516.46
2018-12-27T15:47:54.423Z,101512.70
2018-12-27T15:50:26.064Z,101508.11
2018-12-27T15:52:57.895Z,101501.78
2018-12-27T15:55:29.756Z,101505.66
2018-12-27T15:58:01.540Z,101511.70
2018-12-27T16:00:34.753Z,101511.27
2018-12-27T16:03:08.638Z,101505.34
2018-12-27T16:05:43.995Z,101505.58
2018-12-27T16:08:15.979Z,101510.22
2018-12-27T16:10:49.536Z,101510.88
2018-12-27T16:13:21.503Z,101509.60
2018-12-27T16:15:53.400Z,101513.30
2018-12-27T16:18:26.358Z,101510.16
2018-12-27T16:20:58.145Z,101514.07
2018-12-27T16:23:30.064Z,101513.59
2018-12-27T16:26:01.751Z,101510.69
2018-12-27T16:28:37.505Z,101508.23
2018-12-27T16:31:09.558Z,101512.61
2018-12-27T16:33:43.767Z,101508.70
2018-12-27T16:36:16.248Z,101507.80
2018-12-27T16:38:49.510Z,101504.76
2018-12-27T16:41:21.261Z,101505.40
2018-12-27T16:43:54.124Z,101504.20
2018-12-27T16:46:28.550Z,101500.95
2018-12-27T16:49:00.482Z,101502.28
2018-12-27T16:51:32.657Z,101503.86
2018-12-27T16:56:45.352Z,101502.89
2018-12-27T16:59:22.332Z,101503.64
2018-12-27T17:01:54.215Z,101503.05
2018-12-27T17:04:25.980Z,101504.30
2018-12-27T17:06:57.812Z,101508.77
2018-12-27T17:09:29.526Z,101503.23
2018-12-27T17:12:01.353Z,101500.66
2018-12-27T17:14:35.072Z,101505.69
2018-12-27T17:17:06.858Z,101511.19
2018-12-27T17:19:39.023Z,101505.16
2018-12-27T17:22:10.885Z,101506.74
2018-12-27T17:24:42.829Z,101507.92
2018-12-27T17:27:14.540Z,101508.45
2018-12-27T17:29:46.418Z,101503.02
2018-12-27T17:32:18.936Z,101505.23
2018-12-27T17:34:53.240Z,101501.09
2018-12-27T17:37:25.701Z,101498.55
2018-12-27T17:40:09.602Z,101503.98
2018-12-27T17:42:47.316Z,101503.55
2018-12-27T17:45:19.337Z,101504.30
2018-12-27T17:47:51.242Z,101502.89
2018-12-27T17:50:23.332Z,101505.69
2018-12-27T17:52:54.940Z,101501.25
2018-12-27T17:55:26.765Z,101506.72
2018-12-27T17:57:58.677Z,101505.44
2018-12-27T18:00:30.380Z,101509.20
2018-12-27T18:03:02.128Z,101498.27
2018-12-27T18:05:33.855Z,101502.18
2018-12-27T18:08:05.640Z,101506.22
2018-12-27T18:10:37.395Z,101521.80
2018-12-27T18:13:09.090Z,101522.39
2018-12-27T18:15:45.214Z,101510.63
2018-12-27T18:18:21.912Z,101510.81
2018-12-27T18:20:54.981Z,101504.70
2018-12-27T18:23:29.159Z,101492.62
2018-12-27T18:26:03.632Z,101496.16
2018-12-27T18:28:35.756Z,101493.52
2018-12-27T18:31:08.228Z,101497.50
2018-12-27T18:33:41.482Z,101490.33
2018-12-27T18:36:14.222Z,101494.08
2018-12-27T18:38:52.489Z,101490.57
2018-12-27T18:42:06.363Z,101487.81
2018-12-27T18:48:33.471Z,101484.06
2018-12-27T18:58:18.552Z,101466.42
2018-12-27T19:00:52.235Z,101468.94
2018-12-27T19:11:28.626Z,101462.61
2018-12-27T19:14:03.069Z,101457.86
2018-12-27T19:26:13.176Z,101477.76
2018-12-27T19:28:46.531Z,101473.50
2018-12-27T19:31:18.845Z,101480.70
2018-12-27T19:33:50.568Z,101481.06
2018-12-27T19:36:22.428Z,101490.91
2018-12-27T19:39:02.701Z,101489.58
2018-12-27T19:41:37.799Z,101486.38
2018-12-27T19:44:09.827Z,101493.55
2018-12-27T19:46:48.535Z,101490.78
2018-12-27T19:49:20.243Z,101490.84
2018-12-27T19:51:51.983Z,101496.00
2018-12-27T19:54:31.971Z,101493.52
2018-12-27T19:57:04.860Z,101486.38
2018-12-27T19:59:36.796Z,101484.20
2018-12-27T20:02:12.851Z,101480.56
2018-12-27T20:04:48.442Z,101477.75
2018-12-27T20:07:47.971Z,101480.80
2018-12-27T20:10:18.540Z,101478.89
2018-12-27T20:16:38.469Z,101492.74
2018-12-27T20:19:10.465Z,101489.64
2018-12-27T20:21:48.827Z,101491.53
2018-12-27T20:24:23.566Z,101502.03
2018-12-27T20:27:18.042Z,101487.14
2018-12-27T20:29:58.887Z,101501.53
2018-12-27T20:33:03.860Z,101504.70
2018-12-27T20:35:35.760Z,101505.59
2018-12-27T20:38:31.944Z,101505.28
2018-12-27T20:41:40.453Z,101507.39
2018-12-27T20:44:15.304Z,101504.78
2018-12-27T20:46:50.184Z,101504.48
2018-12-27T20:49:37.460Z,101496.27
2018-12-27T20:52:16.734Z,101497.77
2018-12-27T20:54:48.473Z,101495.16
2018-12-27T20:57:20.186Z,101491.78
2018-12-27T20:59:51.779Z,101487.03
2018-12-27T21:02:23.376Z,101491.03
2018-12-27T21:04:55.156Z,101487.64
2018-12-27T21:07:26.777Z,101486.22
2018-12-27T21:09:59.240Z,101483.58
2018-12-27T21:12:31.180Z,101496.16
2018-12-27T21:15:03.004Z,101496.08
2018-12-27T21:17:35.472Z,101501.28
2018-12-27T21:20:09.578Z,101501.55
2018-12-27T21:22:41.760Z,101498.89
2018-12-27T21:25:18.493Z,101498.91
2018-12-27T21:27:51.925Z,101497.23
2018-12-27T21:30:23.631Z,101491.52
2018-12-27T21:33:25.227Z,101487.79
2018-12-27T21:35:49.997Z,101490.05
2018-12-27T21:38:22.057Z,101493.27
2018-12-27T21:40:53.731Z,101499.25
2018-12-27T21:43:34.456Z,101488.00
2018-12-27T21:46:06.463Z,101493.88
2018-12-27T21:48:38.151Z,101493.31
2018-12-27T21:51:11.829Z,101490.16
2018-12-27T21:53:44.919Z,101473.09
2018-12-27T21:56:19.766Z,101470.20
2018-12-27T21:58:52.625Z,101484.27
2018-12-27T22:01:24.718Z,101485.30
2018-12-27T22:03:58.807Z,101492.31
2018-12-27T22:06:41.373Z,101488.30
2018-12-27T22:09:13.464Z,101478.45
2018-12-27T22:11:45.158Z,101490.33
2018-12-27T22:14:16.850Z,101488.67
2018-12-27T22:16:48.543Z,101488.05
2018-12-27T22:19:20.332Z,101484.78
2018-12-27T22:21:53.165Z,101477.52
2018-12-27T22:24:25.576Z,101470.39
2018-12-27T22:26:57.312Z,101472.20
2018-12-27T22:29:29.174Z,101460.11
2018-12-27T22:32:00.921Z,101465.36
2018-12-27T22:34:32.549Z,101476.95
2018-12-27T22:37:05.282Z,101469.19
2018-12-27T22:39:37.729Z,101480.27
2018-12-27T22:42:09.710Z,101483.28
2018-12-27T22:44:41.680Z,101479.81
2018-12-27T22:47:13.648Z,101480.73
2018-12-27T22:49:55.088Z,101469.59
2018-12-27T22:52:26.767Z,101479.81
2018-12-27T22:54:58.683Z,101472.44
2018-12-27T22:57:30.684Z,101474.80
2018-12-27T23:00:02.574Z,101474.83
2018-12-27T23:02:35.997Z,101472.60
2018-12-27T23:05:07.837Z,101466.08
2018-12-27T23:07:39.550Z,101469.53
2018-12-27T23:10:12.953Z,101463.56
2018-12-27T23:12:53.245Z,101470.78
2018-12-27T23:15:27.247Z,101473.48
2018-12-27T23:18:07.058Z,101469.28
2018-12-27T23:20:40.969Z,101469.16
2018-12-27T23:23:12.619Z,101466.37
2018-12-27T23:25:44.273Z,101464.47
2018-12-27T23:28:15.948Z,101469.48
2018-12-27T23:30:47.604Z,101465.13
2018-12-27T23:33:19.214Z,101476.56
2018-12-27T23:35:50.849Z,101475.66
2018-12-27T23:38:22.617Z,101479.37
2018-12-27T23:40:54.276Z,101473.75
2018-12-27T23:43:25.928Z,101471.60
2018-12-27T23:45:57.735Z,101465.77
2018-12-27T23:48:29.474Z,101462.56
2018-12-27T23:51:01.066Z,101459.15
2018-12-27T23:53:32.746Z,101461.95
2018-12-27T23:56:04.438Z,101462.05
2018-12-27T23:58:35.997Z,101464.07
